Glorious Ace — ZGAL — position and weather

sailwx.info

Track history (hours):
 
Tides and Currents Weather Stations Pressure Air Temp Water Temp Dewpoint Dewpoint Depression Visibility Wind Speed Wind Dir Waves Ship Positions

Glorious Ace

Last reported at 2018-Jun-07 22:30 UTC. Time now 2018-Jun-22 07:44 UTC.
Position N 02°25' E 104°54'.
Warning: this ship's position is 14 days out of date.

Length 200 m; draft 7.7 m.

Type: Cargo ship. MMSI: 319409000.

Date/timePositionNaut miles runAvg speedWind from/ knotsBaromVisibWave heightAir tempDewpointWater temp
2018-Jun-07 22:30N 02°25' E 104°54'1018.0
2018-Jun-07 21:57N 02°15' E 104°53'1017.7
2018-Jun-07 21:22N 02°05' E 104°52'917.2
2018-Jun-07 20:51N 01°57' E 104°49'1617.4
2018-Jun-07 19:55N 01°42' E 104°42'816.8
2018-Jun-07 19:28N 01°35' E 104°39'1016.5
2018-Jun-07 18:53N 01°28' E 104°33'616.7
2018-Jun-07 18:30N 01°24' E 104°27'917.2
2018-Jun-07 18:00N 01°19' E 104°21'816.0
2018-Jun-07 17:30N 01°17' E 104°13'916.9
2018-Jun-07 16:59N 01°16' E 104°05'816.1
2018-Jun-07 16:30N 01°14' E 103°57'714.9
2018-Jun-07 16:00N 01°11' E 103°50'714.4
2018-Jun-07 15:31N 01°06' E 103°45'713.7
2018-Jun-07 14:59N 01°03' E 103°39'815.9
2018-Jun-07 14:31N 01°07' E 103°32'916.9
2018-Jun-07 13:59N 01°11' E 103°25'816.7
2018-Jun-07 13:30N 01°17' E 103°19'1116.8
2018-Jun-07 12:52N 01°23' E 103°10'  
Track history (hours):
 
Tides and Currents Weather Stations Pressure Air Temp Water Temp Dewpoint Dewpoint Depression Visibility Wind Speed Wind Dir Waves Ship Positions

Glorious Ace

Last reported at 2018-Jun-07 22:30 UTC. Time now 2018-Jun-22 07:44 UTC.
Position N 02°25' E 104°54'.
Warning: this ship's position is 14 days out of date.

Length 200 m; draft 7.7 m.

Type: Cargo ship. MMSI: 319409000.

Date/timePositionNaut miles runAvg speedWind from/ knotsBaromVisibWave heightAir tempDewpointWater temp
2018-Jun-07 22:30N 02°25' E 104°54'1018.0
2018-Jun-07 21:57N 02°15' E 104°53'1017.7
2018-Jun-07 21:22N 02°05' E 104°52'917.2
2018-Jun-07 20:51N 01°57' E 104°49'1617.4
2018-Jun-07 19:55N 01°42' E 104°42'816.8
2018-Jun-07 19:28N 01°35' E 104°39'1016.5
2018-Jun-07 18:53N 01°28' E 104°33'616.7
2018-Jun-07 18:30N 01°24' E 104°27'917.2
2018-Jun-07 18:00N 01°19' E 104°21'816.0
2018-Jun-07 17:30N 01°17' E 104°13'916.9
2018-Jun-07 16:59N 01°16' E 104°05'816.1
2018-Jun-07 16:30N 01°14' E 103°57'714.9
2018-Jun-07 16:00N 01°11' E 103°50'714.4
2018-Jun-07 15:31N 01°06' E 103°45'713.7
2018-Jun-07 14:59N 01°03' E 103°39'815.9
2018-Jun-07 14:31N 01°07' E 103°32'916.9
2018-Jun-07 13:59N 01°11' E 103°25'816.7
2018-Jun-07 13:30N 01°17' E 103°19'1116.8
2018-Jun-07 12:52N 01°23' E 103°10'  

Dump ship's entire track history